Eads, CO (81036)

2:46 AM MST on February 10, 2016 (GMT -0700)
Kit Carson | | Change Station
CLOSE
Current Station
Personal Weather Station
Location: Kit Carson, CO
Elevation: 4301 ft
Nearby Weather Stations

Elev 4301 ft 38.77 °N, 102.79 °W | Updated 9 seconds ago

Clear
Clear
31.2 °F
Feels Like 26 °F
N
5.6
Wind Variable Wind from WNW
Gusts 7.0 mph

Today
High -- | Low -- °F
--% Chance of Precip.
Yesterday
High -- | Low -- °F
Precip. -- in
Pressure 30.18 in
Visibility 10.0 miles
Clouds Clear
Windchill 26 °F
Dew Point 23 °F
Humidity 69%
Rainfall 0.00 in
Snow Depth Not available.
6:47 AM 5:22 PM
Waxing Crescent, 4% visible
METAR KLAA 100853Z AUTO 21009KT 10SM CLR M02/M04 A3020 RMK AO2 SLP220 T10221044 58018 TSNO
Pressure 30.18 in
Visibility 10.0 miles
Clouds Clear
Windchill 26 °F
Dew Point 23 °F
Humidity 69%
Rainfall 0.00 in
Snow Depth Not available.
6:47 AM 5:22 PM
Waxing Crescent, 4% visible
METAR KLAA 100853Z AUTO 21009KT 10SM CLR M02/M04 A3020 RMK AO2 SLP220 T10221044 58018 TSNO

10-Day Weather Forecast

Almanac

Astronomy

Feb. 10, 2016 Rise Set
Actual Time
Civil Twilight
Nautical Twilight
Astronomical Twilight
Moon
Length of Visible Light
Length of Day
Tomorrow will be .
, % of the Moon is Illuminated

Today's Extremes

State Highs State Lows

Community

WunderPhotos

Upload Photos

1,891,826 photos uploaded!

WunderBlog® & News

Nearby

Air Quality

  Air Quality AQ Index Pollutant
Not available.

Snow Depth

Station Depth Elevation

Earthquake Activity

City Distance Mag. Time & Date
Minimum magnitude displayed is 2.5.

Coastal Water Temperatures

Place Temperature

Stations

Nearby Weather Stations

Station Location Temp. Windchill Dew Point Humidity Wind Precip. Elev Updated Type
                   

Watches & Warnings

There are currently no watches in effect.